Pagrindinis puslapis
METAR-TAF:

METAR-TAF

Oro uostai :

Valdez, Aliaska, Jungtinės Amerikos Valstijos

platuma: 61-08N, ilguma: 146-16W, Aukštis: 37 m

Dabartinis oras

Ataskaita buvo paskelbta 43 minutes, ne 16:56 UTC
Vėjas 5 kt nuo kintamojo kryptimis
Temperatūra 0°C
Drėgmė 43%
Slėgis 1035 hPa
Matomumas: 16.1 km
Giedras dangus

METAR: PAVD 221656Z VRB05KT 10SM CLR 00/M11 A3056 RMK AO2 SLP348 T00001111

Laikas: 09:39 (17:39 UTC)

Prognozė

Ataskaita buvo paskelbta 6 valandos ir 2 minutes, ne 11:37 UTC
Prognozė galioja nuo 22 metu 12 UTC su 23 metu 12 UTC
Vėjas 11 kt iš Rytų/Šiaurės Rytų
Matomumas: 10 km
Giedras dangus
Nuo 22 metu 1800 UTC
Vėjas 12 kt iš Rytų su gūsio iki 20 kt
Matomumas: 10 km
Giedras dangus
Nuo 23 metu 0300 UTC
Vėjas 5 kt iš Rytų/Šiaurės Rytų
Matomumas: 10 km
Giedras dangus

TAF: PAVD 221137Z 2212/2312 07011KT P6SM SKC FM221800 08012G20KT P6SM SKC FM230300 07005KT P6SM SKC AMD LTD TO CLD VIS AND WIND

Orai ataskaitas ir orų prognozės (METAR, TAF).

turimą stotys yra geltonos ir raudonos taškus žemėlapyje.

Perkelti pele per norėdami pamatyti stoties vardą.

Tada spustelėkite, norėdami matyti oro stebėjimo ir prognozės.

Norėdami pakeisti žemėlapį: spustelėkite ant žalios mygtukų su juodo kryžiaus žemyn,; žalią mygtuką su brūkšneliu, jei norite nutolinti; arba žalių rodyklių gretimoms žemėlapius.


METAR-TAF: